sensor_id;sensor_type;location;lat;lon;timestamp;pressure;altitude;pressure_sealevel;temperature;humidity
10840;BME280;5473;42.706;23.328;2022-10-16T00:01:42;-14565.91;;;-142.93;93.77
10840;BME280;5473;42.706;23.328;2022-10-16T00:04:09;-14565.91;;;-142.93;92.99
10840;BME280;5473;42.706;23.328;2022-10-16T00:06:36;-14565.91;;;-142.93;92.18
10840;BME280;5473;42.706;23.328;2022-10-16T00:09:03;-14565.91;;;-142.93;91.17
10840;BME280;5473;42.706;23.328;2022-10-16T00:11:32;-14565.91;;;-142.93;90.19
10840;BME280;5473;42.706;23.328;2022-10-16T00:14:03;-14565.91;;;-142.93;89.66
10840;BME280;5473;42.706;23.328;2022-10-16T00:16:31;-14565.91;;;-142.93;89.07
10840;BME280;5473;42.706;23.328;2022-10-16T00:18:59;-14565.91;;;-142.93;89.13
10840;BME280;5473;42.706;23.328;2022-10-16T00:21:28;-14565.91;;;-142.93;89.11
10840;BME280;5473;42.706;23.328;2022-10-16T00:23:57;-14565.91;;;-142.93;89.19
10840;BME280;5473;42.706;23.328;2022-10-16T00:26:25;-14565.91;;;-142.93;89.40
10840;BME280;5473;42.706;23.328;2022-10-16T00:28:55;-14565.91;;;-142.93;88.42
10840;BME280;5473;42.706;23.328;2022-10-16T00:31:22;-14565.91;;;-142.93;87.58
10840;BME280;5473;42.706;23.328;2022-10-16T00:33:50;-14565.91;;;-142.93;87.30
10840;BME280;5473;42.706;23.328;2022-10-16T00:36:22;-14565.91;;;-142.93;86.89
10840;BME280;5473;42.706;23.328;2022-10-16T00:38:52;-14565.91;;;-142.93;87.06
10840;BME280;5473;42.706;23.328;2022-10-16T00:41:21;-14565.91;;;-142.93;87.09
10840;BME280;5473;42.706;23.328;2022-10-16T00:43:50;-14565.91;;;-142.93;87.76
10840;BME280;5473;42.706;23.328;2022-10-16T00:46:20;-14565.91;;;-142.93;88.85
10840;BME280;5473;42.706;23.328;2022-10-16T00:48:50;-14565.91;;;-142.93;89.09
10840;BME280;5473;42.706;23.328;2022-10-16T00:51:23;-14565.91;;;-142.93;89.81
10840;BME280;5473;42.706;23.328;2022-10-16T00:53:54;-14565.91;;;-142.93;90.31
10840;BME280;5473;42.706;23.328;2022-10-16T00:56:21;-14565.91;;;-142.93;90.44
10840;BME280;5473;42.706;23.328;2022-10-16T00:58:48;-14565.91;;;-142.93;89.81
10840;BME280;5473;42.706;23.328;2022-10-16T01:01:15;-14565.91;;;-142.93;89.05
10840;BME280;5473;42.706;23.328;2022-10-16T01:03:42;-14565.91;;;-142.93;88.16
10840;BME280;5473;42.706;23.328;2022-10-16T01:06:23;-14565.91;;;-142.93;87.86
10840;BME280;5473;42.706;23.328;2022-10-16T01:09:02;-14565.91;;;-142.93;87.54
10840;BME280;5473;42.706;23.328;2022-10-16T01:11:35;-14565.91;;;-142.93;87.08
10840;BME280;5473;42.706;23.328;2022-10-16T01:14:11;-14565.91;;;-142.93;85.72
10840;BME280;5473;42.706;23.328;2022-10-16T01:16:44;-14565.91;;;-142.93;84.37
10840;BME280;5473;42.706;23.328;2022-10-16T01:19:20;-14565.91;;;-142.93;82.49
10840;BME280;5473;42.706;23.328;2022-10-16T01:21:53;-14565.91;;;-142.93;81.21
10840;BME280;5473;42.706;23.328;2022-10-16T01:24:30;-14565.91;;;-142.93;80.68
10840;BME280;5473;42.706;23.328;2022-10-16T01:27:07;-14565.91;;;-142.93;80.63
10840;BME280;5473;42.706;23.328;2022-10-16T01:29:38;-14565.91;;;-142.93;80.68
10840;BME280;5473;42.706;23.328;2022-10-16T01:32:11;-14565.91;;;-142.93;80.70
10840;BME280;5473;42.706;23.328;2022-10-16T01:34:47;-14565.91;;;-142.93;79.41
10840;BME280;5473;42.706;23.328;2022-10-16T01:37:18;-14565.91;;;-142.93;78.60
10840;BME280;5473;42.706;23.328;2022-10-16T01:39:47;-14565.91;;;-142.93;78.17
10840;BME280;5473;42.706;23.328;2022-10-16T01:42:21;-14565.91;;;-142.93;77.56
10840;BME280;5473;42.706;23.328;2022-10-16T01:44:51;-14565.91;;;-142.93;76.91
10840;BME280;5473;42.706;23.328;2022-10-16T01:47:22;-14565.91;;;-142.93;76.36
10840;BME280;5473;42.706;23.328;2022-10-16T01:49:50;-14565.91;;;-142.93;76.33
10840;BME280;5473;42.706;23.328;2022-10-16T01:52:21;-14565.91;;;-142.93;76.66
10840;BME280;5473;42.706;23.328;2022-10-16T01:54:52;-14565.91;;;-142.93;77.01
10840;BME280;5473;42.706;23.328;2022-10-16T01:57:24;-14565.91;;;-142.93;77.74
10840;BME280;5473;42.706;23.328;2022-10-16T01:59:53;-14565.91;;;-142.93;78.13
10840;BME280;5473;42.706;23.328;2022-10-16T02:02:22;-14565.91;;;-142.93;78.74
10840;BME280;5473;42.706;23.328;2022-10-16T02:04:53;-14565.91;;;-142.93;79.40
10840;BME280;5473;42.706;23.328;2022-10-16T02:07:22;-14565.91;;;-142.93;80.39
10840;BME280;5473;42.706;23.328;2022-10-16T02:09:49;-14565.91;;;-142.93;81.01
10840;BME280;5473;42.706;23.328;2022-10-16T02:12:25;-14565.91;;;-142.93;81.92
10840;BME280;5473;42.706;23.328;2022-10-16T02:14:55;-14565.91;;;-142.93;82.80
10840;BME280;5473;42.706;23.328;2022-10-16T02:17:22;-14565.91;;;-142.93;83.46
10840;BME280;5473;42.706;23.328;2022-10-16T02:19:52;-14565.91;;;-142.93;84.65
10840;BME280;5473;42.706;23.328;2022-10-16T02:22:24;-14565.91;;;-142.93;85.24
10840;BME280;5473;42.706;23.328;2022-10-16T02:24:57;-14565.91;;;-142.93;85.29
10840;BME280;5473;42.706;23.328;2022-10-16T02:27:29;-14565.91;;;-142.93;85.89
10840;BME280;5473;42.706;23.328;2022-10-16T02:30:06;-14565.91;;;-142.93;85.96
10840;BME280;5473;42.706;23.328;2022-10-16T02:32:35;-14565.91;;;-142.93;86.56
10840;BME280;5473;42.706;23.328;2022-10-16T02:35:07;-14565.91;;;-142.93;87.17
10840;BME280;5473;42.706;23.328;2022-10-16T02:37:35;-14565.91;;;-142.93;87.80
10840;BME280;5473;42.706;23.328;2022-10-16T02:40:03;-14565.91;;;-142.93;88.15
10840;BME280;5473;42.706;23.328;2022-10-16T02:42:35;-14565.91;;;-142.93;88.54
10840;BME280;5473;42.706;23.328;2022-10-16T02:45:02;-14565.91;;;-142.93;88.68
10840;BME280;5473;42.706;23.328;2022-10-16T02:47:29;-14565.91;;;-142.93;88.97
10840;BME280;5473;42.706;23.328;2022-10-16T02:49:55;-14565.91;;;-142.93;88.63
10840;BME280;5473;42.706;23.328;2022-10-16T02:52:22;-14565.91;;;-142.93;88.65
10840;BME280;5473;42.706;23.328;2022-10-16T02:54:49;-14565.91;;;-142.93;89.08
10840;BME280;5473;42.706;23.328;2022-10-16T02:57:16;-14565.91;;;-142.93;89.13
10840;BME280;5473;42.706;23.328;2022-10-16T02:59:44;-14565.91;;;-142.93;89.10
10840;BME280;5473;42.706;23.328;2022-10-16T03:02:12;-14565.91;;;-142.93;89.33
10840;BME280;5473;42.706;23.328;2022-10-16T03:04:40;-14565.91;;;-142.93;89.25
10840;BME280;5473;42.706;23.328;2022-10-16T03:07:06;-14565.91;;;-142.93;89.73
10840;BME280;5473;42.706;23.328;2022-10-16T03:09:33;-14565.91;;;-142.93;90.16
10840;BME280;5473;42.706;23.328;2022-10-16T03:12:00;-14565.91;;;-142.93;90.93
10840;BME280;5473;42.706;23.328;2022-10-16T03:14:29;-14565.91;;;-142.93;91.50
10840;BME280;5473;42.706;23.328;2022-10-16T03:16:58;-14565.91;;;-142.93;92.02
10840;BME280;5473;42.706;23.328;2022-10-16T03:19:24;-14565.91;;;-142.93;92.40
10840;BME280;5473;42.706;23.328;2022-10-16T03:21:51;-14565.91;;;-142.93;92.45
10840;BME280;5473;42.706;23.328;2022-10-16T03:24:18;-14565.91;;;-142.93;92.72
10840;BME280;5473;42.706;23.328;2022-10-16T03:26:46;-14565.91;;;-142.93;92.49
10840;BME280;5473;42.706;23.328;2022-10-16T03:29:13;-14565.91;;;-142.93;92.57
10840;BME280;5473;42.706;23.328;2022-10-16T03:31:40;-14565.91;;;-142.93;92.71
10840;BME280;5473;42.706;23.328;2022-10-16T03:34:08;-14565.91;;;-142.93;92.15
10840;BME280;5473;42.706;23.328;2022-10-16T03:36:35;-14565.91;;;-142.93;91.61
10840;BME280;5473;42.706;23.328;2022-10-16T03:39:02;-14565.91;;;-142.93;91.46
10840;BME280;5473;42.706;23.328;2022-10-16T03:41:29;-14565.91;;;-142.93;91.41
10840;BME280;5473;42.706;23.328;2022-10-16T03:43:55;-14565.91;;;-142.93;91.37
10840;BME280;5473;42.706;23.328;2022-10-16T03:46:22;-14565.91;;;-142.93;91.53
10840;BME280;5473;42.706;23.328;2022-10-16T03:48:49;-14565.91;;;-142.93;91.79
10840;BME280;5473;42.706;23.328;2022-10-16T03:51:17;-14565.91;;;-142.93;91.97
10840;BME280;5473;42.706;23.328;2022-10-16T03:53:44;-14565.91;;;-142.93;92.16
10840;BME280;5473;42.706;23.328;2022-10-16T03:56:12;-14565.91;;;-142.93;91.76
10840;BME280;5473;42.706;23.328;2022-10-16T03:58:38;-14565.91;;;-142.93;91.91
10840;BME280;5473;42.706;23.328;2022-10-16T04:01:05;-14565.91;;;-142.93;91.65
10840;BME280;5473;42.706;23.328;2022-10-16T04:03:34;-14565.91;;;-142.93;91.57
10840;BME280;5473;42.706;23.328;2022-10-16T04:06:01;-14565.91;;;-142.93;91.88
10840;BME280;5473;42.706;23.328;2022-10-16T04:08:29;-14565.91;;;-142.93;92.23
10840;BME280;5473;42.706;23.328;2022-10-16T04:10:56;-14565.91;;;-142.93;92.27
10840;BME280;5473;42.706;23.328;2022-10-16T04:13:22;-14565.91;;;-142.93;91.68
10840;BME280;5473;42.706;23.328;2022-10-16T04:15:51;-14565.91;;;-142.93;91.34
10840;BME280;5473;42.706;23.328;2022-10-16T04:18:17;-14565.91;;;-142.93;91.28
10840;BME280;5473;42.706;23.328;2022-10-16T04:20:44;-14565.91;;;-142.93;91.26
10840;BME280;5473;42.706;23.328;2022-10-16T04:23:12;-14565.91;;;-142.93;91.37
10840;BME280;5473;42.706;23.328;2022-10-16T04:25:40;-14565.91;;;-142.93;91.54
10840;BME280;5473;42.706;23.328;2022-10-16T04:28:07;-14565.91;;;-142.93;91.36
10840;BME280;5473;42.706;23.328;2022-10-16T04:30:34;-14565.91;;;-142.93;90.74
10840;BME280;5473;42.706;23.328;2022-10-16T04:33:00;-14565.91;;;-142.93;90.91
10840;BME280;5473;42.706;23.328;2022-10-16T04:35:27;-14565.91;;;-142.93;91.17
10840;BME280;5473;42.706;23.328;2022-10-16T04:37:54;-14565.91;;;-142.93;91.49
10840;BME280;5473;42.706;23.328;2022-10-16T04:40:20;-14565.91;;;-142.93;91.69
10840;BME280;5473;42.706;23.328;2022-10-16T04:42:49;-14565.91;;;-142.93;91.39
10840;BME280;5473;42.706;23.328;2022-10-16T04:45:15;-14565.91;;;-142.93;91.12
10840;BME280;5473;42.706;23.328;2022-10-16T04:47:44;-14565.91;;;-142.93;90.72
10840;BME280;5473;42.706;23.328;2022-10-16T04:50:10;-14565.91;;;-142.93;90.55
10840;BME280;5473;42.706;23.328;2022-10-16T04:52:37;-14565.91;;;-142.93;90.25
10840;BME280;5473;42.706;23.328;2022-10-16T04:55:05;-14565.91;;;-142.93;90.04
10840;BME280;5473;42.706;23.328;2022-10-16T04:57:34;-14565.91;;;-142.93;90.14
10840;BME280;5473;42.706;23.328;2022-10-16T05:00:03;-14565.91;;;-142.93;89.65
10840;BME280;5473;42.706;23.328;2022-10-16T05:02:29;-14565.91;;;-142.93;89.35
10840;BME280;5473;42.706;23.328;2022-10-16T05:04:56;-14565.91;;;-142.93;89.06
10840;BME280;5473;42.706;23.328;2022-10-16T05:07:25;-14565.91;;;-142.93;87.74
10840;BME280;5473;42.706;23.328;2022-10-16T05:09:52;-14565.91;;;-142.93;84.63
10840;BME280;5473;42.706;23.328;2022-10-16T05:12:22;-14565.91;;;-142.93;80.83
10840;BME280;5473;42.706;23.328;2022-10-16T05:14:50;-14565.91;;;-142.93;76.79
10840;BME280;5473;42.706;23.328;2022-10-16T05:17:18;-14565.91;;;-142.93;69.28
10840;BME280;5473;42.706;23.328;2022-10-16T05:19:45;-14565.91;;;-142.93;65.21
10840;BME280;5473;42.706;23.328;2022-10-16T05:22:12;-14565.91;;;-142.93;60.39
10840;BME280;5473;42.706;23.328;2022-10-16T05:24:38;-14565.91;;;-142.93;61.37
10840;BME280;5473;42.706;23.328;2022-10-16T05:27:07;-14565.91;;;-142.93;65.09
10840;BME280;5473;42.706;23.328;2022-10-16T05:29:33;-14565.91;;;-142.93;73.91
10840;BME280;5473;42.706;23.328;2022-10-16T05:32:00;-14565.91;;;-142.93;87.03
10840;BME280;5473;42.706;23.328;2022-10-16T05:34:28;-14565.91;;;-142.93;100.00
10840;BME280;5473;42.706;23.328;2022-10-16T05:36:55;-14565.91;;;-142.93;100.00
10840;BME280;5473;42.706;23.328;2022-10-16T05:39:23;-13812.22;;;-142.93;100.00
10840;BME280;5473;42.706;23.328;2022-10-16T05:41:49;-10801.56;;;-142.93;100.00
10840;BME280;5473;42.706;23.328;2022-10-16T05:44:17;-7536.88;;;-142.93;100.00
10840;BME280;5473;42.706;23.328;2022-10-16T05:46:46;-5777.63;;;-142.93;100.00
10840;BME280;5473;42.706;23.328;2022-10-16T05:49:13;-4520.41;;;-142.93;90.17
10840;BME280;5473;42.706;23.328;2022-10-16T05:51:41;-4520.41;;;-142.93;88.21
10840;BME280;5473;42.706;23.328;2022-10-16T05:54:08;-4771.91;;;-142.93;87.84
10840;BME280;5473;42.706;23.328;2022-10-16T05:56:35;-4017.41;;;-142.93;86.36
10840;BME280;5473;42.706;23.328;2022-10-16T05:59:03;-1249.44;;;-142.93;85.35
10840;BME280;5473;42.706;23.328;2022-10-16T06:01:30;3117.59;;;-142.93;84.53
10840;BME280;5473;42.706;23.328;2022-10-16T06:03:57;6546.00;;;-142.93;83.63
10840;BME280;5473;42.706;23.328;2022-10-16T06:06:25;7328.75;;;-142.93;82.03
10840;BME280;5473;42.706;23.328;2022-10-16T06:08:55;9161.09;;;-142.93;80.54
10840;BME280;5473;42.706;23.328;2022-10-16T06:11:24;12372.66;;;-142.93;79.12
10840;BME280;5473;42.706;23.328;2022-10-16T06:13:53;15407.44;;;-142.93;78.01
10840;BME280;5473;42.706;23.328;2022-10-16T06:16:22;17598.31;;;-142.93;77.52
10840;BME280;5473;42.706;23.328;2022-10-16T06:18:50;19392.84;;;-142.93;76.83
10840;BME280;5473;42.706;23.328;2022-10-16T06:21:19;23377.09;;;-142.93;75.32
10840;BME280;5473;42.706;23.328;2022-10-16T06:23:46;24306.53;;;-142.93;74.55
10840;BME280;5473;42.706;23.328;2022-10-16T06:26:16;27324.47;;;-142.93;72.88
10840;BME280;5473;42.706;23.328;2022-10-16T06:28:43;29130.22;;;-142.93;71.75
10840;BME280;5473;42.706;23.328;2022-10-16T06:31:12;30009.63;;;-142.93;70.81
10840;BME280;5473;42.706;23.328;2022-10-16T06:33:39;31779.06;;;-142.93;69.10
10840;BME280;5473;42.706;23.328;2022-10-16T06:36:09;34356.47;;;-142.93;66.65
10840;BME280;5473;42.706;23.328;2022-10-16T06:38:37;34604.97;;;-142.93;65.92
10840;BME280;5473;42.706;23.328;2022-10-16T06:41:09;35481.84;;;-142.93;64.44
10840;BME280;5473;42.706;23.328;2022-10-16T06:43:38;35923.34;;;-142.93;63.65
10840;BME280;5473;42.706;23.328;2022-10-16T06:46:06;36118.28;;;-142.93;63.19
10840;BME280;5473;42.706;23.328;2022-10-16T06:48:34;36671.25;;;-142.93;61.39
10840;BME280;5473;42.706;23.328;2022-10-16T06:51:02;37019.41;;;-142.93;59.65
10840;BME280;5473;42.706;23.328;2022-10-16T06:53:31;37130.81;;;-142.93;58.95
10840;BME280;5473;42.706;23.328;2022-10-16T06:56:07;37234.28;;;-142.93;57.86
10840;BME280;5473;42.706;23.328;2022-10-16T06:58:36;37089.03;;;-142.93;57.46
10840;BME280;5473;42.706;23.328;2022-10-16T07:01:05;37309.91;;;-142.93;55.68
10840;BME280;5473;42.706;23.328;2022-10-16T07:03:32;37242.25;;;-142.93;55.42
10840;BME280;5473;42.706;23.328;2022-10-16T07:06:03;37290.00;;;-142.93;55.02
10840;BME280;5473;42.706;23.328;2022-10-16T07:08:31;37305.91;;;-142.93;55.11
10840;BME280;5473;42.706;23.328;2022-10-16T07:10:59;37196.50;;;-142.93;54.31
10840;BME280;5473;42.706;23.328;2022-10-16T07:13:27;37182.56;;;-142.93;51.80
10840;BME280;5473;42.706;23.328;2022-10-16T07:15:53;37266.13;;;-142.93;51.22
10840;BME280;5473;42.706;23.328;2022-10-16T07:18:22;37290.00;;;-142.93;51.29
10840;BME280;5473;42.706;23.328;2022-10-16T07:20:52;37329.78;;;-142.93;51.93
10840;BME280;5473;42.706;23.328;2022-10-16T07:23:19;37313.88;;;-142.93;51.17
10840;BME280;5473;42.706;23.328;2022-10-16T07:25:45;37276.06;;;-142.93;51.09
10840;BME280;5473;42.706;23.328;2022-10-16T07:28:12;37303.94;;;-142.93;51.59
10840;BME280;5473;42.706;23.328;2022-10-16T07:30:39;37375.56;;;-142.93;51.33
10840;BME280;5473;42.706;23.328;2022-10-16T07:33:05;37319.84;;;-142.93;50.94
10840;BME280;5473;42.706;23.328;2022-10-16T07:35:33;37335.75;;;-142.93;50.84
10840;BME280;5473;42.706;23.328;2022-10-16T07:38:00;37323.81;;;-142.93;50.77
10840;BME280;5473;42.706;23.328;2022-10-16T07:40:27;37309.91;;;-142.93;50.05
10840;BME280;5473;42.706;23.328;2022-10-16T07:42:54;37361.63;;;-142.93;50.52
10840;BME280;5473;42.706;23.328;2022-10-16T07:45:20;37321.84;;;-142.93;50.91
10840;BME280;5473;42.706;23.328;2022-10-16T07:47:47;37238.28;;;-142.93;49.60
10840;BME280;5473;42.706;23.328;2022-10-16T07:50:14;37230.31;;;-142.93;47.79
10840;BME280;5473;42.706;23.328;2022-10-16T07:52:42;37327.81;;;-142.93;48.26
10840;BME280;5473;42.706;23.328;2022-10-16T07:55:09;37284.03;;;-142.93;47.73
10840;BME280;5473;42.706;23.328;2022-10-16T07:57:35;37333.78;;;-142.93;47.53
10840;BME280;5473;42.706;23.328;2022-10-16T08:00:03;37393.47;;;-142.93;48.33
10840;BME280;5473;42.706;23.328;2022-10-16T08:02:31;37367.59;;;-142.93;48.79
10840;BME280;5473;42.706;23.328;2022-10-16T08:04:58;37335.75;;;-142.93;48.44
10840;BME280;5473;42.706;23.328;2022-10-16T08:07:24;37341.72;;;-142.93;48.29
10840;BME280;5473;42.706;23.328;2022-10-16T08:09:53;37246.22;;;-142.93;47.54
10840;BME280;5473;42.706;23.328;2022-10-16T08:12:21;37222.34;;;-142.93;47.16
10840;BME280;5473;42.706;23.328;2022-10-16T08:14:48;37345.72;;;-142.93;47.76
10840;BME280;5473;42.706;23.328;2022-10-16T08:17:15;37331.78;;;-142.93;47.46
10840;BME280;5473;42.706;23.328;2022-10-16T08:19:44;37329.78;;;-142.93;47.77
10840;BME280;5473;42.706;23.328;2022-10-16T08:22:14;37309.91;;;-142.93;47.77
10840;BME280;5473;42.706;23.328;2022-10-16T08:24:41;37373.56;;;-142.93;47.44
10840;BME280;5473;42.706;23.328;2022-10-16T08:27:09;37457.16;;;-142.93;48.34
10840;BME280;5473;42.706;23.328;2022-10-16T08:29:36;37435.25;;;-142.93;49.31
10840;BME280;5473;42.706;23.328;2022-10-16T08:32:04;37407.41;;;-142.93;48.60
10840;BME280;5473;42.706;23.328;2022-10-16T08:34:30;37335.75;;;-142.93;47.81
10840;BME280;5473;42.706;23.328;2022-10-16T08:36:57;37419.34;;;-142.93;48.20
10840;BME280;5473;42.706;23.328;2022-10-16T08:39:24;37383.53;;;-142.93;48.25
10840;BME280;5473;42.706;23.328;2022-10-16T08:42:13;37309.91;;;-142.93;47.65
10840;BME280;5473;42.706;23.328;2022-10-16T08:45:07;37278.06;;;-142.93;45.74
10840;BME280;5473;42.706;23.328;2022-10-16T08:47:49;37293.97;;;-142.93;45.63
10840;BME280;5473;42.706;23.328;2022-10-16T08:50:21;37186.53;;;-142.93;44.45
10840;BME280;5473;42.706;23.328;2022-10-16T08:52:49;37242.25;;;-142.93;43.57
10840;BME280;5473;42.706;23.328;2022-10-16T08:55:29;37230.31;;;-142.93;43.15
10840;BME280;5473;42.706;23.328;2022-10-16T08:57:59;37335.75;;;-142.93;42.79
10840;BME280;5473;42.706;23.328;2022-10-16T09:00:27;37359.66;;;-142.93;42.71
10840;BME280;5473;42.706;23.328;2022-10-16T09:03:00;37248.22;;;-142.93;42.20
10840;BME280;5473;42.706;23.328;2022-10-16T09:05:46;37319.84;;;-142.93;40.79
10840;BME280;5473;42.706;23.328;2022-10-16T09:08:21;37441.22;;;-142.93;41.86
10840;BME280;5473;42.706;23.328;2022-10-16T09:10:56;37389.50;;;-142.93;40.95
10840;BME280;5473;42.706;23.328;2022-10-16T09:13:31;37309.91;;;-142.93;40.22
10840;BME280;5473;42.706;23.328;2022-10-16T09:16:13;37321.84;;;-142.93;38.94
10840;BME280;5473;42.706;23.328;2022-10-16T09:18:48;37224.34;;;-142.93;39.46
10840;BME280;5473;42.706;23.328;2022-10-16T09:21:19;37190.53;;;-142.93;37.79
10840;BME280;5473;42.706;23.328;2022-10-16T09:23:48;37168.63;;;-142.93;37.14
10840;BME280;5473;42.706;23.328;2022-10-16T09:26:16;37282.03;;;-142.93;37.07
10840;BME280;5473;42.706;23.328;2022-10-16T09:28:46;37288.00;;;-142.93;37.77
10840;BME280;5473;42.706;23.328;2022-10-16T09:31:16;37176.59;;;-142.93;36.98
10840;BME280;5473;42.706;23.328;2022-10-16T09:33:47;37093.03;;;-142.93;36.96
10840;BME280;5473;42.706;23.328;2022-10-16T09:36:15;37019.41;;;-142.93;35.45
10840;BME280;5473;42.706;23.328;2022-10-16T09:38:43;37061.19;;;-142.93;34.87
10840;BME280;5473;42.706;23.328;2022-10-16T09:41:15;37170.63;;;-142.93;35.18
10840;BME280;5473;42.706;23.328;2022-10-16T09:43:51;37192.50;;;-142.93;35.36
10840;BME280;5473;42.706;23.328;2022-10-16T09:46:24;37106.94;;;-142.93;35.10
10840;BME280;5473;42.706;23.328;2022-10-16T09:48:54;37301.94;;;-142.93;35.88
10840;BME280;5473;42.706;23.328;2022-10-16T09:51:25;37172.63;;;-142.93;35.42
10840;BME280;5473;42.706;23.328;2022-10-16T09:53:58;37073.13;;;-142.93;34.91
10840;BME280;5473;42.706;23.328;2022-10-16T09:56:27;37244.25;;;-142.93;36.22
10840;BME280;5473;42.706;23.328;2022-10-16T09:58:58;37258.16;;;-142.93;36.56
10840;BME280;5473;42.706;23.328;2022-10-16T10:01:30;37230.31;;;-142.93;36.42
10840;BME280;5473;42.706;23.328;2022-10-16T10:03:59;37136.81;;;-142.93;35.72
10840;BME280;5473;42.706;23.328;2022-10-16T10:06:31;36929.88;;;-142.93;34.66
10840;BME280;5473;42.706;23.328;2022-10-16T10:09:05;36744.88;;;-142.93;33.25
10840;BME280;5473;42.706;23.328;2022-10-16T10:11:41;36603.63;;;-142.93;33.03
10840;BME280;5473;42.706;23.328;2022-10-16T10:14:19;37059.19;;;-142.93;34.25
10840;BME280;5473;42.706;23.328;2022-10-16T10:16:47;37033.34;;;-142.93;34.59
10840;BME280;5473;42.706;23.328;2022-10-16T10:19:16;36896.06;;;-142.93;33.94
10840;BME280;5473;42.706;23.328;2022-10-16T10:21:43;36844.34;;;-142.93;33.58
10840;BME280;5473;42.706;23.328;2022-10-16T10:24:11;36935.84;;;-142.93;33.48
10840;BME280;5473;42.706;23.328;2022-10-16T10:26:38;36965.69;;;-142.93;34.09
10840;BME280;5473;42.706;23.328;2022-10-16T10:29:16;36975.66;;;-142.93;34.04
10840;BME280;5473;42.706;23.328;2022-10-16T10:31:53;37025.38;;;-142.93;34.16
10840;BME280;5473;42.706;23.328;2022-10-16T10:34:32;37140.78;;;-142.93;34.63
10840;BME280;5473;42.706;23.328;2022-10-16T10:37:10;37254.19;;;-142.93;35.73
10840;BME280;5473;42.706;23.328;2022-10-16T10:39:48;37037.31;;;-142.93;34.38
10840;BME280;5473;42.706;23.328;2022-10-16T10:42:22;37051.25;;;-142.93;34.48
10840;BME280;5473;42.706;23.328;2022-10-16T10:45:11;37043.28;;;-142.93;34.13
10840;BME280;5473;42.706;23.328;2022-10-16T10:47:47;36991.56;;;-142.93;34.06
10840;BME280;5473;42.706;23.328;2022-10-16T10:50:24;36933.88;;;-142.93;33.89
10840;BME280;5473;42.706;23.328;2022-10-16T10:52:58;36888.09;;;-142.93;33.53
10840;BME280;5473;42.706;23.328;2022-10-16T10:55:36;36722.97;;;-142.93;32.65
10840;BME280;5473;42.706;23.328;2022-10-16T10:58:23;36947.78;;;-142.93;33.66
10840;BME280;5473;42.706;23.328;2022-10-16T11:01:02;37196.50;;;-142.93;34.59
10840;BME280;5473;42.706;23.328;2022-10-16T11:03:43;37212.41;;;-142.93;34.63
10840;BME280;5473;42.706;23.328;2022-10-16T11:06:16;37222.34;;;-142.93;35.25
10840;BME280;5473;42.706;23.328;2022-10-16T11:08:48;37122.88;;;-142.93;34.96
10840;BME280;5473;42.706;23.328;2022-10-16T11:11:23;37288.00;;;-142.93;35.55
10840;BME280;5473;42.706;23.328;2022-10-16T11:13:56;37427.28;;;-142.93;36.24
10840;BME280;5473;42.706;23.328;2022-10-16T11:16:30;37435.25;;;-142.93;37.23
10840;BME280;5473;42.706;23.328;2022-10-16T11:19:02;37341.72;;;-142.93;37.57
10840;BME280;5473;42.706;23.328;2022-10-16T11:21:36;37327.81;;;-142.93;36.65
10840;BME280;5473;42.706;23.328;2022-10-16T11:24:13;37299.94;;;-142.93;35.94
10840;BME280;5473;42.706;23.328;2022-10-16T11:26:43;37230.31;;;-142.93;35.96
10840;BME280;5473;42.706;23.328;2022-10-16T11:29:19;37186.53;;;-142.93;35.38
10840;BME280;5473;42.706;23.328;2022-10-16T11:31:52;37063.19;;;-142.93;34.69
10840;BME280;5473;42.706;23.328;2022-10-16T11:34:24;37033.34;;;-142.93;33.68
10840;BME280;5473;42.706;23.328;2022-10-16T11:36:58;37047.28;;;-142.93;33.79
10840;BME280;5473;42.706;23.328;2022-10-16T11:39:30;37218.38;;;-142.93;34.34
10840;BME280;5473;42.706;23.328;2022-10-16T11:42:01;37301.94;;;-142.93;34.86
10840;BME280;5473;42.706;23.328;2022-10-16T11:44:51;37236.28;;;-142.93;34.86
10840;BME280;5473;42.706;23.328;2022-10-16T11:47:27;37202.47;;;-142.93;34.33
10840;BME280;5473;42.706;23.328;2022-10-16T11:49:59;37246.22;;;-142.93;34.21
10840;BME280;5473;42.706;23.328;2022-10-16T11:52:31;37114.91;;;-142.93;33.94
10840;BME280;5473;42.706;23.328;2022-10-16T11:55:04;37073.13;;;-142.93;33.28
10840;BME280;5473;42.706;23.328;2022-10-16T11:57:35;37226.34;;;-142.93;33.92
10840;BME280;5473;42.706;23.328;2022-10-16T12:00:09;37083.06;;;-142.93;33.64
10840;BME280;5473;42.706;23.328;2022-10-16T12:02:52;37132.81;;;-142.93;33.33
10840;BME280;5473;42.706;23.328;2022-10-16T12:05:25;37202.47;;;-142.93;33.44
10840;BME280;5473;42.706;23.328;2022-10-16T12:08:03;37172.63;;;-142.93;33.27
10840;BME280;5473;42.706;23.328;2022-10-16T12:10:33;37357.66;;;-142.93;33.95
10840;BME280;5473;42.706;23.328;2022-10-16T12:13:03;37375.56;;;-142.93;34.13
10840;BME280;5473;42.706;23.328;2022-10-16T12:15:32;37413.38;;;-142.93;34.59
10840;BME280;5473;42.706;23.328;2022-10-16T12:18:00;37393.47;;;-142.93;34.26
10840;BME280;5473;42.706;23.328;2022-10-16T12:20:29;37469.09;;;-142.93;34.02
10840;BME280;5473;42.706;23.328;2022-10-16T12:22:59;37439.22;;;-142.93;33.17
10840;BME280;5473;42.706;23.328;2022-10-16T12:25:30;37465.09;;;-142.93;32.61
10840;BME280;5473;42.706;23.328;2022-10-16T12:28:00;37425.31;;;-142.93;33.18
10840;BME280;5473;42.706;23.328;2022-10-16T12:30:29;37407.41;;;-142.93;32.47
10840;BME280;5473;42.706;23.328;2022-10-16T12:32:58;37419.34;;;-142.93;33.33
10840;BME280;5473;42.706;23.328;2022-10-16T12:35:29;37363.63;;;-142.93;33.78
10840;BME280;5473;42.706;23.328;2022-10-16T12:38:06;37286.03;;;-142.93;33.50
10840;BME280;5473;42.706;23.328;2022-10-16T12:40:35;37254.19;;;-142.93;33.50
10840;BME280;5473;42.706;23.328;2022-10-16T12:43:25;37301.94;;;-142.93;33.93
10840;BME280;5473;42.706;23.328;2022-10-16T12:46:02;37429.28;;;-142.93;34.32
10840;BME280;5473;42.706;23.328;2022-10-16T12:48:29;37313.88;;;-142.93;34.58
10840;BME280;5473;42.706;23.328;2022-10-16T12:51:09;37514.84;;;-142.93;33.97